sensor_id;sensor_type;location;lat;lon;timestamp;P1;durP1;ratioP1;P2;durP2;ratioP2
64063;SDS011;50314;50.618;10.642;2024-03-02T00:01:07;5.78;;;4.60;;
64063;SDS011;50314;50.618;10.642;2024-03-02T00:03:36;5.43;;;4.35;;
64063;SDS011;50314;50.618;10.642;2024-03-02T00:06:03;6.68;;;5.70;;
64063;SDS011;50314;50.618;10.642;2024-03-02T00:08:29;5.25;;;4.32;;
64063;SDS011;50314;50.618;10.642;2024-03-02T00:10:59;5.80;;;4.43;;
64063;SDS011;50314;50.618;10.642;2024-03-02T00:13:27;5.57;;;4.07;;
64063;SDS011;50314;50.618;10.642;2024-03-02T00:15:55;7.15;;;4.97;;
64063;SDS011;50314;50.618;10.642;2024-03-02T00:20:54;5.00;;;4.18;;
64063;SDS011;50314;50.618;10.642;2024-03-02T00:23:22;6.10;;;5.20;;
64063;SDS011;50314;50.618;10.642;2024-03-02T00:25:49;5.45;;;3.88;;
64063;SDS011;50314;50.618;10.642;2024-03-02T00:28:21;6.55;;;4.82;;
64063;SDS011;50314;50.618;10.642;2024-03-02T00:35:58;4.82;;;4.05;;
64063;SDS011;50314;50.618;10.642;2024-03-02T00:38:25;5.57;;;4.90;;
64063;SDS011;50314;50.618;10.642;2024-03-02T00:40:51;5.93;;;4.50;;
64063;SDS011;50314;50.618;10.642;2024-03-02T00:46:00;5.93;;;4.50;;
64063;SDS011;50314;50.618;10.642;2024-03-02T00:48:26;5.47;;;4.70;;
64063;SDS011;50314;50.618;10.642;2024-03-02T00:50:52;5.32;;;4.25;;
64063;SDS011;50314;50.618;10.642;2024-03-02T00:53:18;5.93;;;4.95;;
64063;SDS011;50314;50.618;10.642;2024-03-02T00:55:49;6.00;;;4.30;;
64063;SDS011;50314;50.618;10.642;2024-03-02T00:58:15;5.35;;;4.22;;
64063;SDS011;50314;50.618;10.642;2024-03-02T01:00:40;5.70;;;4.47;;
64063;SDS011;50314;50.618;10.642;2024-03-02T01:03:06;6.53;;;4.25;;
64063;SDS011;50314;50.618;10.642;2024-03-02T01:05:32;5.85;;;4.10;;
64063;SDS011;50314;50.618;10.642;2024-03-02T01:07:58;5.70;;;4.30;;
64063;SDS011;50314;50.618;10.642;2024-03-02T01:10:24;4.97;;;4.20;;
64063;SDS011;50314;50.618;10.642;2024-03-02T01:12:51;5.10;;;3.97;;
64063;SDS011;50314;50.618;10.642;2024-03-02T01:15:16;5.88;;;4.70;;
64063;SDS011;50314;50.618;10.642;2024-03-02T01:17:42;5.95;;;4.65;;
64063;SDS011;50314;50.618;10.642;2024-03-02T01:20:08;5.60;;;4.45;;
64063;SDS011;50314;50.618;10.642;2024-03-02T01:22:34;5.78;;;4.30;;
64063;SDS011;50314;50.618;10.642;2024-03-02T01:25:01;6.28;;;4.70;;
64063;SDS011;50314;50.618;10.642;2024-03-02T01:27:27;5.88;;;4.63;;
64063;SDS011;50314;50.618;10.642;2024-03-02T01:29:53;5.45;;;4.25;;
64063;SDS011;50314;50.618;10.642;2024-03-02T01:32:19;5.53;;;4.80;;
64063;SDS011;50314;50.618;10.642;2024-03-02T01:34:45;5.03;;;4.20;;
64063;SDS011;50314;50.618;10.642;2024-03-02T01:37:11;5.53;;;4.53;;
64063;SDS011;50314;50.618;10.642;2024-03-02T01:39:36;6.05;;;4.18;;
64063;SDS011;50314;50.618;10.642;2024-03-02T01:42:02;5.43;;;4.35;;
64063;SDS011;50314;50.618;10.642;2024-03-02T01:44:27;5.15;;;4.22;;
64063;SDS011;50314;50.618;10.642;2024-03-02T01:46:53;6.63;;;4.70;;
64063;SDS011;50314;50.618;10.642;2024-03-02T01:49:19;5.18;;;4.22;;
64063;SDS011;50314;50.618;10.642;2024-03-02T01:51:44;5.78;;;4.10;;
64063;SDS011;50314;50.618;10.642;2024-03-02T01:54:10;5.32;;;4.22;;
64063;SDS011;50314;50.618;10.642;2024-03-02T01:56:35;4.90;;;4.20;;
64063;SDS011;50314;50.618;10.642;2024-03-02T01:59:01;6.10;;;4.70;;
64063;SDS011;50314;50.618;10.642;2024-03-02T02:01:27;5.65;;;4.72;;
64063;SDS011;50314;50.618;10.642;2024-03-02T02:03:52;5.90;;;4.32;;
64063;SDS011;50314;50.618;10.642;2024-03-02T02:06:18;5.85;;;4.63;;
64063;SDS011;50314;50.618;10.642;2024-03-02T02:08:43;5.50;;;4.18;;
64063;SDS011;50314;50.618;10.642;2024-03-02T02:11:10;4.95;;;3.92;;
64063;SDS011;50314;50.618;10.642;2024-03-02T02:13:36;5.40;;;4.20;;
64063;SDS011;50314;50.618;10.642;2024-03-02T02:16:05;5.25;;;4.05;;
64063;SDS011;50314;50.618;10.642;2024-03-02T02:18:32;4.70;;;3.67;;
64063;SDS011;50314;50.618;10.642;2024-03-02T02:20:57;5.05;;;3.88;;
64063;SDS011;50314;50.618;10.642;2024-03-02T02:23:23;4.78;;;4.28;;
64063;SDS011;50314;50.618;10.642;2024-03-02T02:25:48;5.10;;;3.58;;
64063;SDS011;50314;50.618;10.642;2024-03-02T02:28:14;4.65;;;4.00;;
64063;SDS011;50314;50.618;10.642;2024-03-02T02:30:39;4.93;;;4.18;;
64063;SDS011;50314;50.618;10.642;2024-03-02T02:33:05;4.63;;;3.80;;
64063;SDS011;50314;50.618;10.642;2024-03-02T02:35:30;4.82;;;3.85;;
64063;SDS011;50314;50.618;10.642;2024-03-02T02:37:56;5.75;;;4.15;;
64063;SDS011;50314;50.618;10.642;2024-03-02T02:40:24;5.93;;;4.57;;
64063;SDS011;50314;50.618;10.642;2024-03-02T02:42:49;5.80;;;4.68;;
64063;SDS011;50314;50.618;10.642;2024-03-02T02:47:42;5.13;;;3.80;;
64063;SDS011;50314;50.618;10.642;2024-03-02T02:50:08;4.40;;;3.80;;
64063;SDS011;50314;50.618;10.642;2024-03-02T02:52:34;5.65;;;4.13;;
64063;SDS011;50314;50.618;10.642;2024-03-02T02:57:30;5.57;;;4.35;;
64063;SDS011;50314;50.618;10.642;2024-03-02T03:00:00;4.65;;;4.18;;
64063;SDS011;50314;50.618;10.642;2024-03-02T03:02:30;5.07;;;3.85;;
64063;SDS011;50314;50.618;10.642;2024-03-02T03:04:56;4.70;;;3.72;;
64063;SDS011;50314;50.618;10.642;2024-03-02T03:07:22;5.22;;;4.03;;
64063;SDS011;50314;50.618;10.642;2024-03-02T03:09:48;4.57;;;4.10;;
64063;SDS011;50314;50.618;10.642;2024-03-02T03:12:13;4.93;;;4.07;;
64063;SDS011;50314;50.618;10.642;2024-03-02T03:14:40;5.00;;;3.92;;
64063;SDS011;50314;50.618;10.642;2024-03-02T03:17:06;4.22;;;3.47;;
64063;SDS011;50314;50.618;10.642;2024-03-02T03:19:33;4.95;;;3.67;;
64063;SDS011;50314;50.618;10.642;2024-03-02T03:21:59;5.20;;;3.92;;
64063;SDS011;50314;50.618;10.642;2024-03-02T03:24:24;5.00;;;4.30;;
64063;SDS011;50314;50.618;10.642;2024-03-02T03:26:50;4.40;;;3.70;;
64063;SDS011;50314;50.618;10.642;2024-03-02T03:29:15;4.63;;;4.07;;
64063;SDS011;50314;50.618;10.642;2024-03-02T03:31:41;5.03;;;3.72;;
64063;SDS011;50314;50.618;10.642;2024-03-02T03:34:06;5.10;;;4.13;;
64063;SDS011;50314;50.618;10.642;2024-03-02T03:36:32;4.95;;;3.90;;
64063;SDS011;50314;50.618;10.642;2024-03-02T03:38:57;5.10;;;3.95;;
64063;SDS011;50314;50.618;10.642;2024-03-02T03:41:23;4.05;;;3.58;;
64063;SDS011;50314;50.618;10.642;2024-03-02T03:43:49;5.22;;;3.72;;
64063;SDS011;50314;50.618;10.642;2024-03-02T03:46:15;5.22;;;4.72;;
64063;SDS011;50314;50.618;10.642;2024-03-02T03:48:40;5.18;;;4.18;;
64063;SDS011;50314;50.618;10.642;2024-03-02T03:51:07;5.60;;;4.20;;
64063;SDS011;50314;50.618;10.642;2024-03-02T03:53:32;4.65;;;3.38;;
64063;SDS011;50314;50.618;10.642;2024-03-02T03:55:58;4.88;;;3.88;;
64063;SDS011;50314;50.618;10.642;2024-03-02T03:58:23;4.70;;;3.90;;
64063;SDS011;50314;50.618;10.642;2024-03-02T04:00:49;5.22;;;4.13;;
64063;SDS011;50314;50.618;10.642;2024-03-02T04:03:14;4.93;;;3.65;;
64063;SDS011;50314;50.618;10.642;2024-03-02T04:05:40;5.45;;;4.15;;
64063;SDS011;50314;50.618;10.642;2024-03-02T04:08:05;5.15;;;4.13;;
64063;SDS011;50314;50.618;10.642;2024-03-02T04:10:31;5.15;;;3.85;;
64063;SDS011;50314;50.618;10.642;2024-03-02T04:12:56;4.85;;;3.78;;
64063;SDS011;50314;50.618;10.642;2024-03-02T04:15:22;5.57;;;4.00;;
64063;SDS011;50314;50.618;10.642;2024-03-02T04:17:48;4.85;;;3.92;;
64063;SDS011;50314;50.618;10.642;2024-03-02T04:20:14;5.25;;;4.10;;
64063;SDS011;50314;50.618;10.642;2024-03-02T04:22:39;5.30;;;4.03;;
64063;SDS011;50314;50.618;10.642;2024-03-02T04:25:05;5.18;;;3.92;;
64063;SDS011;50314;50.618;10.642;2024-03-02T04:27:32;5.50;;;4.30;;
64063;SDS011;50314;50.618;10.642;2024-03-02T04:29:58;4.57;;;3.72;;
64063;SDS011;50314;50.618;10.642;2024-03-02T04:32:25;5.25;;;3.90;;
64063;SDS011;50314;50.618;10.642;2024-03-02T04:34:52;5.07;;;3.72;;
64063;SDS011;50314;50.618;10.642;2024-03-02T04:37:18;5.20;;;4.05;;
64063;SDS011;50314;50.618;10.642;2024-03-02T04:39:43;5.38;;;3.63;;
64063;SDS011;50314;50.618;10.642;2024-03-02T04:42:09;4.72;;;3.63;;
64063;SDS011;50314;50.618;10.642;2024-03-02T04:44:35;4.95;;;3.45;;
64063;SDS011;50314;50.618;10.642;2024-03-02T04:47:00;5.95;;;4.45;;
64063;SDS011;50314;50.618;10.642;2024-03-02T04:49:26;5.30;;;3.85;;
64063;SDS011;50314;50.618;10.642;2024-03-02T04:51:51;5.00;;;4.03;;
64063;SDS011;50314;50.618;10.642;2024-03-02T04:54:17;4.43;;;3.90;;
64063;SDS011;50314;50.618;10.642;2024-03-02T04:56:43;5.13;;;4.03;;
64063;SDS011;50314;50.618;10.642;2024-03-02T04:59:17;4.72;;;3.67;;
64063;SDS011;50314;50.618;10.642;2024-03-02T05:01:44;5.43;;;4.28;;
64063;SDS011;50314;50.618;10.642;2024-03-02T05:04:10;5.90;;;4.28;;
64063;SDS011;50314;50.618;10.642;2024-03-02T05:06:39;4.95;;;3.85;;
64063;SDS011;50314;50.618;10.642;2024-03-02T05:09:06;5.07;;;4.20;;
64063;SDS011;50314;50.618;10.642;2024-03-02T05:11:34;4.88;;;3.90;;
64063;SDS011;50314;50.618;10.642;2024-03-02T05:14:03;5.53;;;4.50;;
64063;SDS011;50314;50.618;10.642;2024-03-02T05:16:32;4.38;;;3.70;;
64063;SDS011;50314;50.618;10.642;2024-03-02T05:18:59;4.45;;;3.47;;
64063;SDS011;50314;50.618;10.642;2024-03-02T05:21:24;5.15;;;4.40;;
64063;SDS011;50314;50.618;10.642;2024-03-02T05:23:49;4.90;;;3.38;;
64063;SDS011;50314;50.618;10.642;2024-03-02T05:26:15;5.28;;;4.68;;
64063;SDS011;50314;50.618;10.642;2024-03-02T05:28:41;4.10;;;3.22;;
64063;SDS011;50314;50.618;10.642;2024-03-02T05:31:09;5.13;;;3.63;;
64063;SDS011;50314;50.618;10.642;2024-03-02T05:33:39;4.82;;;3.47;;
64063;SDS011;50314;50.618;10.642;2024-03-02T05:36:05;5.25;;;4.40;;
64063;SDS011;50314;50.618;10.642;2024-03-02T05:38:31;4.32;;;3.53;;
64063;SDS011;50314;50.618;10.642;2024-03-02T05:40:57;3.83;;;3.42;;
64063;SDS011;50314;50.618;10.642;2024-03-02T05:43:22;4.45;;;3.72;;
64063;SDS011;50314;50.618;10.642;2024-03-02T05:45:48;4.65;;;3.50;;
64063;SDS011;50314;50.618;10.642;2024-03-02T05:48:14;4.18;;;3.58;;
64063;SDS011;50314;50.618;10.642;2024-03-02T05:50:39;5.82;;;4.05;;
64063;SDS011;50314;50.618;10.642;2024-03-02T05:53:05;5.15;;;4.15;;
64063;SDS011;50314;50.618;10.642;2024-03-02T05:55:30;5.18;;;4.38;;
64063;SDS011;50314;50.618;10.642;2024-03-02T05:57:56;4.95;;;3.90;;
64063;SDS011;50314;50.618;10.642;2024-03-02T06:00:42;4.78;;;3.67;;
64063;SDS011;50314;50.618;10.642;2024-03-02T06:03:08;5.55;;;4.28;;
64063;SDS011;50314;50.618;10.642;2024-03-02T06:05:34;5.88;;;4.55;;
64063;SDS011;50314;50.618;10.642;2024-03-02T06:08:00;4.10;;;3.70;;
64063;SDS011;50314;50.618;10.642;2024-03-02T06:10:25;5.07;;;4.18;;
64063;SDS011;50314;50.618;10.642;2024-03-02T06:12:51;4.93;;;4.00;;
64063;SDS011;50314;50.618;10.642;2024-03-02T06:15:16;4.80;;;3.67;;
64063;SDS011;50314;50.618;10.642;2024-03-02T06:17:42;4.40;;;3.58;;
64063;SDS011;50314;50.618;10.642;2024-03-02T06:20:07;4.70;;;3.47;;
64063;SDS011;50314;50.618;10.642;2024-03-02T06:22:34;3.95;;;3.30;;
64063;SDS011;50314;50.618;10.642;2024-03-02T06:25:00;5.00;;;3.80;;
64063;SDS011;50314;50.618;10.642;2024-03-02T06:27:25;4.75;;;3.92;;
64063;SDS011;50314;50.618;10.642;2024-03-02T06:29:51;3.95;;;3.20;;
64063;SDS011;50314;50.618;10.642;2024-03-02T06:32:16;4.88;;;3.42;;
64063;SDS011;50314;50.618;10.642;2024-03-02T06:34:42;3.60;;;3.28;;
64063;SDS011;50314;50.618;10.642;2024-03-02T06:37:07;5.18;;;3.78;;
64063;SDS011;50314;50.618;10.642;2024-03-02T06:39:33;4.22;;;3.78;;
64063;SDS011;50314;50.618;10.642;2024-03-02T06:41:59;4.38;;;3.97;;
64063;SDS011;50314;50.618;10.642;2024-03-02T06:44:25;4.72;;;3.83;;
64063;SDS011;50314;50.618;10.642;2024-03-02T06:46:51;4.97;;;4.00;;
64063;SDS011;50314;50.618;10.642;2024-03-02T06:49:16;5.15;;;3.95;;
64063;SDS011;50314;50.618;10.642;2024-03-02T06:51:43;5.03;;;3.67;;
64063;SDS011;50314;50.618;10.642;2024-03-02T06:54:09;4.88;;;3.90;;
64063;SDS011;50314;50.618;10.642;2024-03-02T06:56:35;5.18;;;4.38;;
64063;SDS011;50314;50.618;10.642;2024-03-02T06:59:00;5.00;;;3.85;;
64063;SDS011;50314;50.618;10.642;2024-03-02T07:01:26;4.20;;;3.70;;
64063;SDS011;50314;50.618;10.642;2024-03-02T07:03:53;4.80;;;3.55;;
64063;SDS011;50314;50.618;10.642;2024-03-02T07:06:18;4.43;;;4.03;;
64063;SDS011;50314;50.618;10.642;2024-03-02T07:08:44;3.95;;;3.53;;
64063;SDS011;50314;50.618;10.642;2024-03-02T07:11:09;5.03;;;4.07;;
64063;SDS011;50314;50.618;10.642;2024-03-02T07:13:35;4.97;;;3.97;;
64063;SDS011;50314;50.618;10.642;2024-03-02T07:16:00;4.68;;;3.95;;
64063;SDS011;50314;50.618;10.642;2024-03-02T07:18:31;4.88;;;4.35;;
64063;SDS011;50314;50.618;10.642;2024-03-02T07:20:58;4.95;;;4.03;;
64063;SDS011;50314;50.618;10.642;2024-03-02T07:23:26;6.00;;;4.43;;
64063;SDS011;50314;50.618;10.642;2024-03-02T07:25:55;5.57;;;3.85;;
64063;SDS011;50314;50.618;10.642;2024-03-02T07:28:22;4.93;;;4.38;;
64063;SDS011;50314;50.618;10.642;2024-03-02T07:31:09;5.88;;;4.40;;
64063;SDS011;50314;50.618;10.642;2024-03-02T07:33:35;4.20;;;3.50;;
64063;SDS011;50314;50.618;10.642;2024-03-02T07:36:01;5.47;;;4.00;;
64063;SDS011;50314;50.618;10.642;2024-03-02T07:38:30;5.30;;;4.28;;
64063;SDS011;50314;50.618;10.642;2024-03-02T07:40:57;5.45;;;4.05;;
64063;SDS011;50314;50.618;10.642;2024-03-02T07:43:23;6.63;;;4.45;;
64063;SDS011;50314;50.618;10.642;2024-03-02T07:45:48;6.40;;;4.53;;
64063;SDS011;50314;50.618;10.642;2024-03-02T07:48:14;6.63;;;4.75;;
64063;SDS011;50314;50.618;10.642;2024-03-02T07:50:40;6.15;;;3.90;;
64063;SDS011;50314;50.618;10.642;2024-03-02T07:53:06;5.20;;;4.28;;
64063;SDS011;50314;50.618;10.642;2024-03-02T07:55:33;5.50;;;4.55;;
64063;SDS011;50314;50.618;10.642;2024-03-02T07:57:59;7.15;;;4.40;;
64063;SDS011;50314;50.618;10.642;2024-03-02T08:00:26;4.90;;;4.40;;
64063;SDS011;50314;50.618;10.642;2024-03-02T08:02:53;5.03;;;4.05;;
64063;SDS011;50314;50.618;10.642;2024-03-02T08:05:20;4.82;;;4.25;;
64063;SDS011;50314;50.618;10.642;2024-03-02T08:07:46;6.95;;;4.18;;
64063;SDS011;50314;50.618;10.642;2024-03-02T08:10:12;6.47;;;3.88;;
64063;SDS011;50314;50.618;10.642;2024-03-02T08:12:38;5.40;;;4.03;;
64063;SDS011;50314;50.618;10.642;2024-03-02T08:15:03;4.63;;;4.15;;
64063;SDS011;50314;50.618;10.642;2024-03-02T08:17:29;5.45;;;3.97;;
64063;SDS011;50314;50.618;10.642;2024-03-02T08:19:55;5.38;;;3.85;;
64063;SDS011;50314;50.618;10.642;2024-03-02T08:22:21;5.95;;;4.55;;
64063;SDS011;50314;50.618;10.642;2024-03-02T08:24:48;5.05;;;3.92;;
64063;SDS011;50314;50.618;10.642;2024-03-02T08:27:13;5.13;;;4.18;;
64063;SDS011;50314;50.618;10.642;2024-03-02T08:29:39;7.20;;;4.18;;
64063;SDS011;50314;50.618;10.642;2024-03-02T08:32:06;4.70;;;3.92;;
64063;SDS011;50314;50.618;10.642;2024-03-02T08:34:32;6.05;;;4.57;;
64063;SDS011;50314;50.618;10.642;2024-03-02T08:36:58;5.85;;;4.32;;
64063;SDS011;50314;50.618;10.642;2024-03-02T08:39:24;4.97;;;4.35;;
64063;SDS011;50314;50.618;10.642;2024-03-02T08:41:50;5.32;;;3.83;;
64063;SDS011;50314;50.618;10.642;2024-03-02T08:44:16;4.90;;;3.95;;
64063;SDS011;50314;50.618;10.642;2024-03-02T08:46:42;4.80;;;4.03;;
64063;SDS011;50314;50.618;10.642;2024-03-02T08:49:09;5.55;;;4.05;;
64063;SDS011;50314;50.618;10.642;2024-03-02T08:51:34;5.57;;;4.20;;
64063;SDS011;50314;50.618;10.642;2024-03-02T08:54:00;4.72;;;4.00;;
64063;SDS011;50314;50.618;10.642;2024-03-02T08:56:25;5.10;;;4.20;;
64063;SDS011;50314;50.618;10.642;2024-03-02T08:58:51;5.25;;;3.72;;
64063;SDS011;50314;50.618;10.642;2024-03-02T09:01:17;4.43;;;3.83;;
64063;SDS011;50314;50.618;10.642;2024-03-02T09:03:44;4.72;;;3.97;;
64063;SDS011;50314;50.618;10.642;2024-03-02T09:06:10;5.43;;;4.47;;
64063;SDS011;50314;50.618;10.642;2024-03-02T09:08:36;5.60;;;4.30;;
64063;SDS011;50314;50.618;10.642;2024-03-02T09:11:03;7.10;;;4.30;;
64063;SDS011;50314;50.618;10.642;2024-03-02T09:13:29;6.40;;;4.82;;
64063;SDS011;50314;50.618;10.642;2024-03-02T09:15:55;5.88;;;4.70;;
64063;SDS011;50314;50.618;10.642;2024-03-02T09:18:20;5.63;;;4.10;;
64063;SDS011;50314;50.618;10.642;2024-03-02T09:20:46;6.45;;;4.45;;
64063;SDS011;50314;50.618;10.642;2024-03-02T09:23:11;5.18;;;4.25;;
64063;SDS011;50314;50.618;10.642;2024-03-02T09:25:37;5.10;;;3.92;;
64063;SDS011;50314;50.618;10.642;2024-03-02T09:28:02;5.55;;;4.10;;
64063;SDS011;50314;50.618;10.642;2024-03-02T09:30:28;5.35;;;4.30;;
64063;SDS011;50314;50.618;10.642;2024-03-02T09:32:54;4.93;;;3.72;;
64063;SDS011;50314;50.618;10.642;2024-03-02T09:35:19;5.13;;;3.45;;
64063;SDS011;50314;50.618;10.642;2024-03-02T09:37:45;4.65;;;3.60;;
64063;SDS011;50314;50.618;10.642;2024-03-02T09:40:11;5.07;;;3.60;;
64063;SDS011;50314;50.618;10.642;2024-03-02T09:42:38;4.70;;;4.07;;
64063;SDS011;50314;50.618;10.642;2024-03-02T09:45:05;4.30;;;3.60;;
64063;SDS011;50314;50.618;10.642;2024-03-02T09:47:31;4.35;;;3.83;;
64063;SDS011;50314;50.618;10.642;2024-03-02T09:49:56;4.82;;;3.78;;
64063;SDS011;50314;50.618;10.642;2024-03-02T09:52:22;4.18;;;3.33;;
64063;SDS011;50314;50.618;10.642;2024-03-02T09:54:48;4.50;;;3.70;;
64063;SDS011;50314;50.618;10.642;2024-03-02T09:57:14;4.25;;;3.38;;
64063;SDS011;50314;50.618;10.642;2024-03-02T09:59:40;4.80;;;4.00;;
64063;SDS011;50314;50.618;10.642;2024-03-02T10:02:05;4.38;;;3.95;;
64063;SDS011;50314;50.618;10.642;2024-03-02T10:04:32;5.10;;;4.00;;
64063;SDS011;50314;50.618;10.642;2024-03-02T10:07:20;4.85;;;3.97;;
64063;SDS011;50314;50.618;10.642;2024-03-02T10:09:45;3.83;;;3.35;;
64063;SDS011;50314;50.618;10.642;2024-03-02T10:12:13;4.20;;;3.70;;
64063;SDS011;50314;50.618;10.642;2024-03-02T10:14:40;4.40;;;4.00;;
64063;SDS011;50314;50.618;10.642;2024-03-02T10:17:07;4.90;;;4.15;;
64063;SDS011;50314;50.618;10.642;2024-03-02T10:19:37;5.13;;;3.95;;
64063;SDS011;50314;50.618;10.642;2024-03-02T10:22:04;5.07;;;3.78;;
64063;SDS011;50314;50.618;10.642;2024-03-02T10:27:27;9.30;;;6.15;;
64063;SDS011;50314;50.618;10.642;2024-03-02T10:29:52;7.63;;;5.85;;
64063;SDS011;50314;50.618;10.642;2024-03-02T10:32:18;6.10;;;5.10;;
64063;SDS011;50314;50.618;10.642;2024-03-02T10:34:47;7.43;;;5.38;;
64063;SDS011;50314;50.618;10.642;2024-03-02T10:37:13;6.40;;;5.28;;
64063;SDS011;50314;50.618;10.642;2024-03-02T10:39:40;5.57;;;4.25;;
64063;SDS011;50314;50.618;10.642;2024-03-02T10:42:06;7.15;;;5.03;;
64063;SDS011;50314;50.618;10.642;2024-03-02T10:44:32;6.75;;;5.25;;
64063;SDS011;50314;50.618;10.642;2024-03-02T10:47:02;5.20;;;4.68;;
64063;SDS011;50314;50.618;10.642;2024-03-02T10:49:29;6.28;;;4.28;;
64063;SDS011;50314;50.618;10.642;2024-03-02T10:51:57;5.13;;;4.35;;
64063;SDS011;50314;50.618;10.642;2024-03-02T10:56:52;5.65;;;4.68;;
64063;SDS011;50314;50.618;10.642;2024-03-02T11:01:58;5.05;;;3.63;;
64063;SDS011;50314;50.618;10.642;2024-03-02T11:04:25;4.93;;;4.07;;
64063;SDS011;50314;50.618;10.642;2024-03-02T11:06:54;5.20;;;3.90;;
64063;SDS011;50314;50.618;10.642;2024-03-02T11:09:25;4.40;;;3.53;;
64063;SDS011;50314;50.618;10.642;2024-03-02T11:12:15;4.88;;;3.75;;
64063;SDS011;50314;50.618;10.642;2024-03-02T11:14:44;4.80;;;3.90;;
64063;SDS011;50314;50.618;10.642;2024-03-02T11:17:09;4.53;;;3.80;;
64063;SDS011;50314;50.618;10.642;2024-03-02T11:19:37;5.05;;;4.10;;
64063;SDS011;50314;50.618;10.642;2024-03-02T11:22:04;5.22;;;3.97;;
64063;SDS011;50314;50.618;10.642;2024-03-02T11:24:31;4.35;;;3.95;;
64063;SDS011;50314;50.618;10.642;2024-03-02T11:27:00;5.88;;;4.55;;
64063;SDS011;50314;50.618;10.642;2024-03-02T11:32:15;5.53;;;4.50;;
64063;SDS011;50314;50.618;10.642;2024-03-02T11:34:49;4.40;;;3.58;;
64063;SDS011;50314;50.618;10.642;2024-03-02T11:37:17;3.97;;;3.28;;
64063;SDS011;50314;50.618;10.642;2024-03-02T11:39:45;4.07;;;3.50;;
64063;SDS011;50314;50.618;10.642;2024-03-02T11:42:12;4.10;;;3.42;;
64063;SDS011;50314;50.618;10.642;2024-03-02T11:44:40;4.53;;;3.58;;
64063;SDS011;50314;50.618;10.642;2024-03-02T11:47:08;4.05;;;3.60;;
64063;SDS011;50314;50.618;10.642;2024-03-02T11:52:14;4.40;;;3.83;;
64063;SDS011;50314;50.618;10.642;2024-03-02T11:54:41;4.75;;;4.13;;
64063;SDS011;50314;50.618;10.642;2024-03-02T11:57:15;4.18;;;3.78;;
64063;SDS011;50314;50.618;10.642;2024-03-02T11:59:42;4.20;;;3.60;;
64063;SDS011;50314;50.618;10.642;2024-03-02T12:02:14;4.60;;;3.00;;
64063;SDS011;50314;50.618;10.642;2024-03-02T12:04:45;3.88;;;3.47;;
64063;SDS011;50314;50.618;10.642;2024-03-02T12:07:13;4.65;;;3.53;;
64063;SDS011;50314;50.618;10.642;2024-03-02T12:09:47;4.07;;;3.17;;
64063;SDS011;50314;50.618;10.642;2024-03-02T12:12:14;4.53;;;3.92;;
64063;SDS011;50314;50.618;10.642;2024-03-02T12:14:51;4.75;;;3.35;;
64063;SDS011;50314;50.618;10.642;2024-03-02T12:17:18;4.70;;;3.45;;
64063;SDS011;50314;50.618;10.642;2024-03-02T12:19:44;3.97;;;3.00;;
64063;SDS011;50314;50.618;10.642;2024-03-02T12:22:11;3.60;;;3.13;;
64063;SDS011;50314;50.618;10.642;2024-03-02T12:24:36;3.45;;;3.05;;
64063;SDS011;50314;50.618;10.642;2024-03-02T12:27:03;4.20;;;3.35;;
64063;SDS011;50314;50.618;10.642;2024-03-02T12:31:55;3.38;;;2.90;;
64063;SDS011;50314;50.618;10.642;2024-03-02T12:34:21;3.78;;;3.10;;
64063;SDS011;50314;50.618;10.642;2024-03-02T12:36:48;4.07;;;3.10;;
64063;SDS011;50314;50.618;10.642;2024-03-02T12:39:17;4.35;;;3.25;;
64063;SDS011;50314;50.618;10.642;2024-03-02T12:41:43;4.32;;;3.75;;
64063;SDS011;50314;50.618;10.642;2024-03-02T12:44:09;4.32;;;3.33;;
64063;SDS011;50314;50.618;10.642;2024-03-02T12:46:35;3.10;;;2.72;;
64063;SDS011;50314;50.618;10.642;2024-03-02T12:49:14;3.25;;;2.88;;
64063;SDS011;50314;50.618;10.642;2024-03-02T12:51:45;4.25;;;3.30;;
64063;SDS011;50314;50.618;10.642;2024-03-02T12:54:16;3.42;;;2.90;;
64063;SDS011;50314;50.618;10.642;2024-03-02T12:56:42;3.65;;;3.28;;
64063;SDS011;50314;50.618;10.642;2024-03-02T12:59:17;4.10;;;3.00;;
64063;SDS011;50314;50.618;10.642;2024-03-02T13:01:53;6.47;;;3.58;;
64063;SDS011;50314;50.618;10.642;2024-03-02T13:04:26;3.22;;;2.78;;
64063;SDS011;50314;50.618;10.642;2024-03-02T13:06:54;3.38;;;2.97;;
64063;SDS011;50314;50.618;10.642;2024-03-02T13:09:22;3.50;;;3.00;;
64063;SDS011;50314;50.618;10.642;2024-03-02T13:11:48;2.95;;;2.65;;
64063;SDS011;50314;50.618;10.642;2024-03-02T13:14:14;3.70;;;2.88;;
64063;SDS011;50314;50.618;10.642;2024-03-02T13:16:40;4.45;;;3.15;;
64063;SDS011;50314;50.618;10.642;2024-03-02T13:19:09;3.38;;;3.08;;
64063;SDS011;50314;50.618;10.642;2024-03-02T13:21:36;4.28;;;3.33;;
64063;SDS011;50314;50.618;10.642;2024-03-02T13:24:03;3.58;;;2.83;;
64063;SDS011;50314;50.618;10.642;2024-03-02T13:26:30;3.25;;;2.85;;
64063;SDS011;50314;50.618;10.642;2024-03-02T13:28:55;3.15;;;2.50;;
64063;SDS011;50314;50.618;10.642;2024-03-02T13:31:21;3.63;;;2.88;;
64063;SDS011;50314;50.618;10.642;2024-03-02T13:33:47;2.88;;;2.60;;
64063;SDS011;50314;50.618;10.642;2024-03-02T13:36:13;2.75;;;2.55;;
64063;SDS011;50314;50.618;10.642;2024-03-02T13:38:38;2.72;;;2.53;;
64063;SDS011;50314;50.618;10.642;2024-03-02T13:41:04;2.63;;;2.42;;
64063;SDS011;50314;50.618;10.642;2024-03-02T13:43:29;3.17;;;2.67;;
64063;SDS011;50314;50.618;10.642;2024-03-02T13:45:58;3.25;;;2.63;;
64063;SDS011;50314;50.618;10.642;2024-03-02T13:48:24;3.33;;;3.03;;
64063;SDS011;50314;50.618;10.642;2024-03-02T13:53:17;3.08;;;2.67;;
64063;SDS011;50314;50.618;10.642;2024-03-02T13:55:43;3.10;;;2.80;;
64063;SDS011;50314;50.618;10.642;2024-03-02T13:58:09;4.57;;;3.53;;
64063;SDS011;50314;50.618;10.642;2024-03-02T14:00:36;6.05;;;3.85;;
64063;SDS011;50314;50.618;10.642;2024-03-02T14:03:03;6.05;;;4.40;;
64063;SDS011;50314;50.618;10.642;2024-03-02T14:05:32;5.13;;;4.32;;
64063;SDS011;50314;50.618;10.642;2024-03-02T14:07:58;6.25;;;4.18;;
64063;SDS011;50314;50.618;10.642;2024-03-02T14:10:25;6.60;;;4.40;;
64063;SDS011;50314;50.618;10.642;2024-03-02T14:12:52;5.90;;;4.53;;
64063;SDS011;50314;50.618;10.642;2024-03-02T14:15:17;5.57;;;4.07;;
64063;SDS011;50314;50.618;10.642;2024-03-02T14:17:43;6.13;;;4.07;;
64063;SDS011;50314;50.618;10.642;2024-03-02T14:20:08;4.25;;;3.40;;
64063;SDS011;50314;50.618;10.642;2024-03-02T14:22:38;4.70;;;3.72;;
64063;SDS011;50314;50.618;10.642;2024-03-02T14:25:04;6.07;;;3.40;;
64063;SDS011;50314;50.618;10.642;2024-03-02T14:27:30;4.10;;;3.60;;
64063;SDS011;50314;50.618;10.642;2024-03-02T14:29:55;4.40;;;3.35;;
64063;SDS011;50314;50.618;10.642;2024-03-02T14:32:21;5.63;;;3.63;;
64063;SDS011;50314;50.618;10.642;2024-03-02T14:34:46;3.63;;;2.92;;
64063;SDS011;50314;50.618;10.642;2024-03-02T14:37:13;4.50;;;3.22;;
64063;SDS011;50314;50.618;10.642;2024-03-02T14:42:04;3.58;;;2.75;;
64063;SDS011;50314;50.618;10.642;2024-03-02T14:44:30;3.90;;;3.08;;
64063;SDS011;50314;50.618;10.642;2024-03-02T14:46:56;4.05;;;3.10;;
64063;SDS011;50314;50.618;10.642;2024-03-02T14:49:23;3.60;;;2.60;;
64063;SDS011;50314;50.618;10.642;2024-03-02T14:51:49;3.30;;;2.88;;
64063;SDS011;50314;50.618;10.642;2024-03-02T14:54:15;4.47;;;3.45;;
64063;SDS011;50314;50.618;10.642;2024-03-02T14:56:40;5.30;;;4.13;;
64063;SDS011;50314;50.618;10.642;2024-03-02T14:59:06;4.25;;;3.83;;
64063;SDS011;50314;50.618;10.642;2024-03-02T15:01:32;6.05;;;4.35;;
64063;SDS011;50314;50.618;10.642;2024-03-02T15:03:58;4.00;;;3.58;;
64063;SDS011;50314;50.618;10.642;2024-03-02T15:06:23;4.75;;;4.22;;